createdAt,value
2019-05-26T00:00:29.585Z,7.30
2019-05-26T00:01:29.584Z,7.70
2019-05-26T00:02:29.581Z,7.50
2019-05-26T00:03:29.612Z,7.80
2019-05-26T00:04:29.580Z,8.70
2019-05-26T00:05:29.578Z,9.20
2019-05-26T00:06:29.579Z,8.10
2019-05-26T00:07:30.920Z,8.10
2019-05-26T00:08:29.596Z,6.90
2019-05-26T00:09:29.573Z,7.90
2019-05-26T00:10:29.567Z,8.20
2019-05-26T00:11:29.563Z,7.70
2019-05-26T00:12:29.565Z,8.20
2019-05-26T00:13:29.590Z,7.80
2019-05-26T00:14:29.560Z,8.00
2019-05-26T00:15:29.562Z,8.20
2019-05-26T00:16:29.552Z,8.10
2019-05-26T00:17:29.550Z,7.90
2019-05-26T00:18:33.114Z,8.00
2019-05-26T00:19:29.546Z,8.30
2019-05-26T00:20:29.541Z,8.00
2019-05-26T00:21:29.550Z,7.70
2019-05-26T00:22:29.541Z,8.20
2019-05-26T00:23:29.592Z,7.80
2019-05-26T00:24:29.534Z,8.10
2019-05-26T00:25:29.530Z,7.30
2019-05-26T00:26:29.536Z,7.70
2019-05-26T00:27:29.530Z,7.90
2019-05-26T00:28:29.554Z,8.50
2019-05-26T00:29:29.529Z,8.20
2019-05-26T00:30:29.540Z,7.50
2019-05-26T00:31:29.515Z,7.90
2019-05-26T00:32:29.520Z,10.40
2019-05-26T00:33:29.553Z,9.00
2019-05-26T00:34:29.511Z,9.40
2019-05-26T00:35:29.514Z,9.30
2019-05-26T00:36:29.511Z,8.80
2019-05-26T00:37:29.511Z,8.10
2019-05-26T00:38:29.537Z,9.00
2019-05-26T00:39:29.498Z,9.00
2019-05-26T00:40:29.503Z,9.60
2019-05-26T00:41:29.499Z,9.40
2019-05-26T00:42:29.494Z,8.70
2019-05-26T00:43:29.492Z,8.40
2019-05-26T00:44:29.521Z,8.50
2019-05-26T00:45:29.485Z,8.40
2019-05-26T00:46:29.483Z,8.60
2019-05-26T00:47:29.484Z,8.90
2019-05-26T00:48:29.476Z,9.00
2019-05-26T00:49:29.507Z,8.30
2019-05-26T00:50:29.476Z,8.70
2019-05-26T00:51:29.471Z,9.20
2019-05-26T00:52:29.469Z,9.10
2019-05-26T00:53:29.523Z,9.20
2019-05-26T00:54:29.500Z,9.70
2019-05-26T00:55:29.474Z,9.40
2019-05-26T00:56:29.470Z,9.60
2019-05-26T00:57:29.458Z,9.60
2019-05-26T00:58:29.462Z,10.00
2019-05-26T00:59:29.481Z,10.30
2019-05-26T01:00:29.452Z,10.60
2019-05-26T01:01:29.446Z,11.20
2019-05-26T01:02:29.446Z,10.60
2019-05-26T01:03:29.448Z,11.20
2019-05-26T01:04:29.469Z,10.60
2019-05-26T01:05:29.439Z,10.30
2019-05-26T01:06:29.439Z,10.00
2019-05-26T01:07:29.441Z,10.40
2019-05-26T01:08:29.428Z,9.90
2019-05-26T01:09:29.456Z,10.30
2019-05-26T01:10:29.427Z,10.10
2019-05-26T01:11:29.430Z,10.80
2019-05-26T01:12:29.424Z,10.60
2019-05-26T01:13:29.416Z,10.40
2019-05-26T01:14:29.440Z,10.50
2019-05-26T01:15:29.417Z,10.50
2019-05-26T01:16:29.415Z,10.60
2019-05-26T01:17:29.405Z,10.80
2019-05-26T01:18:29.417Z,10.70
2019-05-26T01:19:29.433Z,10.50
2019-05-26T01:20:29.402Z,10.60
2019-05-26T01:21:29.414Z,11.30
2019-05-26T01:22:29.399Z,10.50
2019-05-26T01:23:29.454Z,10.30
2019-05-26T01:24:29.495Z,10.50
2019-05-26T01:25:29.387Z,11.30
2019-05-26T01:26:29.390Z,10.90
2019-05-26T01:27:29.382Z,11.80
2019-05-26T01:28:29.385Z,12.00
2019-05-26T01:29:29.417Z,11.70
2019-05-26T01:30:29.375Z,11.70
2019-05-26T01:31:29.396Z,11.90
2019-05-26T01:32:29.372Z,11.00
2019-05-26T01:33:29.372Z,12.10
2019-05-26T01:34:29.428Z,11.90
2019-05-26T01:35:29.370Z,11.30
2019-05-26T01:36:29.355Z,12.40
2019-05-26T01:37:29.361Z,12.80
2019-05-26T01:38:29.359Z,11.90
2019-05-26T01:39:29.383Z,12.80
2019-05-26T01:40:29.351Z,12.90
2019-05-26T01:41:29.347Z,12.40
2019-05-26T01:42:29.342Z,12.50
2019-05-26T01:43:29.345Z,12.80
2019-05-26T01:44:29.368Z,12.50
2019-05-26T01:45:29.336Z,12.40
2019-05-26T01:46:29.339Z,12.10
2019-05-26T01:47:29.326Z,12.40
2019-05-26T01:48:29.328Z,13.70
2019-05-26T01:49:29.353Z,12.60
2019-05-26T01:50:29.324Z,12.80
2019-05-26T01:51:29.319Z,13.20
2019-05-26T01:52:29.321Z,10.70
2019-05-26T01:53:29.314Z,10.90
2019-05-26T01:54:29.345Z,12.10
2019-05-26T01:55:29.309Z,11.90
2019-05-26T01:56:29.306Z,13.20
2019-05-26T01:57:29.312Z,12.90
2019-05-26T01:58:29.313Z,13.20
2019-05-26T01:59:29.329Z,14.60
2019-05-26T02:00:29.298Z,14.10
2019-05-26T02:01:29.293Z,13.90
2019-05-26T02:02:29.291Z,13.50
2019-05-26T02:03:29.286Z,13.40
2019-05-26T02:04:29.315Z,13.70
2019-05-26T02:05:29.279Z,13.30
2019-05-26T02:06:29.307Z,13.70
2019-05-26T02:07:29.275Z,13.20
2019-05-26T02:08:38.771Z,13.80
2019-05-26T02:09:29.272Z,13.20
2019-05-26T02:10:29.292Z,13.50
2019-05-26T02:11:29.265Z,13.20
2019-05-26T02:12:29.262Z,13.10
2019-05-26T02:13:29.259Z,13.60
2019-05-26T02:14:29.257Z,14.20
2019-05-26T02:15:29.279Z,13.60
2019-05-26T02:16:29.246Z,13.50
2019-05-26T02:17:29.244Z,14.20
2019-05-26T02:18:29.240Z,13.90
2019-05-26T02:19:29.237Z,14.10
2019-05-26T02:20:29.270Z,14.30
2019-05-26T02:21:29.238Z,15.60
2019-05-26T02:22:29.228Z,14.70
2019-05-26T02:23:29.230Z,15.60
2019-05-26T02:24:29.228Z,14.20
2019-05-26T02:25:29.247Z,14.90
2019-05-26T02:26:29.220Z,15.70
2019-05-26T02:27:29.213Z,14.50
2019-05-26T02:28:29.207Z,14.30
2019-05-26T02:29:29.214Z,13.80
2019-05-26T02:30:29.236Z,14.10
2019-05-26T02:31:29.200Z,14.90
2019-05-26T02:32:29.206Z,14.40
2019-05-26T02:33:29.196Z,14.40
2019-05-26T02:34:29.193Z,14.40
2019-05-26T02:35:29.219Z,15.20
2019-05-26T02:36:29.184Z,14.90
2019-05-26T02:37:29.187Z,13.90
2019-05-26T02:38:29.181Z,15.10
2019-05-26T02:39:29.183Z,14.70
2019-05-26T02:40:29.205Z,14.80
2019-05-26T02:41:29.166Z,15.20
2019-05-26T02:42:29.168Z,15.20
2019-05-26T02:43:29.168Z,16.10
2019-05-26T02:44:29.223Z,14.70
2019-05-26T02:45:29.193Z,15.10
2019-05-26T02:46:29.157Z,14.50
2019-05-26T02:47:29.152Z,15.60
2019-05-26T02:48:29.152Z,14.80
2019-05-26T02:49:29.147Z,14.60
2019-05-26T02:50:29.169Z,15.40
2019-05-26T02:51:29.133Z,16.20
2019-05-26T02:52:29.133Z,16.20
2019-05-26T02:53:29.134Z,15.60
2019-05-26T02:54:29.131Z,15.20
2019-05-26T02:55:29.153Z,16.00
2019-05-26T02:56:29.123Z,15.40
2019-05-26T02:57:29.116Z,15.80
2019-05-26T02:58:29.122Z,15.50
2019-05-26T02:59:29.119Z,16.00
2019-05-26T03:00:29.134Z,16.50
2019-05-26T03:01:29.115Z,16.60
2019-05-26T03:02:29.107Z,15.80
2019-05-26T03:03:29.103Z,16.00
2019-05-26T03:04:29.096Z,15.10
2019-05-26T03:05:29.115Z,16.00
2019-05-26T03:06:29.096Z,15.90
2019-05-26T03:07:29.082Z,15.60
2019-05-26T03:08:29.091Z,16.80
2019-05-26T03:09:29.093Z,16.50
2019-05-26T03:10:29.120Z,16.10
2019-05-26T03:11:29.077Z,17.10
2019-05-26T03:12:29.073Z,16.50
2019-05-26T03:13:29.071Z,16.50
2019-05-26T03:14:29.057Z,16.80
2019-05-26T03:15:29.093Z,17.50
2019-05-26T03:16:29.057Z,17.80
2019-05-26T03:17:29.059Z,16.90
2019-05-26T03:18:29.050Z,19.00
2019-05-26T03:19:29.044Z,20.00
2019-05-26T03:20:29.042Z,20.00
2019-05-26T03:21:29.070Z,19.80
2019-05-26T03:22:29.043Z,19.10
2019-05-26T03:23:29.029Z,18.70
2019-05-26T03:24:29.029Z,19.10
2019-05-26T03:25:29.026Z,20.20
2019-05-26T03:26:29.050Z,20.60
2019-05-26T03:27:29.018Z,20.50
2019-05-26T03:28:29.016Z,19.10
2019-05-26T03:29:29.018Z,18.80
2019-05-26T03:30:29.008Z,19.30
2019-05-26T03:31:29.047Z,17.80
2019-05-26T03:32:29.003Z,17.10
2019-05-26T03:33:29.005Z,18.30
2019-05-26T03:34:29.017Z,18.50
2019-05-26T03:35:29.075Z,17.70
2019-05-26T03:36:29.024Z,18.50
2019-05-26T03:37:29.002Z,17.90
2019-05-26T03:38:28.983Z,18.00
2019-05-26T03:39:43.610Z,18.40
2019-05-26T03:40:28.983Z,19.30
2019-05-26T03:41:28.996Z,18.70
2019-05-26T03:42:28.972Z,19.00
2019-05-26T03:43:28.964Z,18.20
2019-05-26T03:44:28.968Z,18.00
2019-05-26T03:45:28.965Z,18.70
2019-05-26T03:46:28.989Z,18.50
2019-05-26T03:47:28.957Z,19.20
2019-05-26T03:48:28.959Z,18.90
2019-05-26T03:49:28.944Z,19.20
2019-05-26T03:50:28.953Z,18.80
2019-05-26T03:51:28.973Z,17.80
2019-05-26T03:52:28.947Z,19.30
2019-05-26T03:53:28.941Z,18.50
2019-05-26T03:54:28.939Z,18.90
2019-05-26T03:55:28.930Z,18.60
2019-05-26T03:56:28.962Z,19.00
2019-05-26T03:57:28.928Z,18.80
2019-05-26T03:58:28.923Z,18.50
2019-05-26T03:59:28.918Z,18.60
2019-05-26T04:00:28.919Z,17.60
2019-05-26T04:01:28.939Z,18.20
2019-05-26T04:02:28.917Z,18.70
2019-05-26T04:03:28.913Z,18.90
2019-05-26T04:04:28.916Z,18.70
2019-05-26T04:05:28.908Z,18.70
2019-05-26T04:06:28.899Z,19.00
2019-05-26T04:07:28.936Z,18.30
2019-05-26T04:08:28.895Z,19.70
2019-05-26T04:09:28.900Z,19.90
2019-05-26T04:10:28.891Z,20.90
2019-05-26T04:11:28.890Z,20.00
2019-05-26T04:12:28.914Z,19.40
2019-05-26T04:13:28.883Z,19.60
2019-05-26T04:14:28.881Z,19.70
2019-05-26T04:15:28.884Z,18.80
2019-05-26T04:16:28.878Z,18.10
2019-05-26T04:17:28.901Z,19.90
2019-05-26T04:18:28.876Z,19.00
2019-05-26T04:19:28.867Z,17.20
2019-05-26T04:20:28.878Z,16.10
2019-05-26T04:21:28.879Z,16.40
2019-05-26T04:22:28.894Z,16.80
2019-05-26T04:23:28.875Z,15.40
2019-05-26T04:24:28.866Z,16.70
2019-05-26T04:25:28.859Z,17.90
2019-05-26T04:26:28.858Z,15.60
2019-05-26T04:27:28.888Z,14.70
2019-05-26T04:28:28.858Z,14.10
2019-05-26T04:29:28.854Z,13.90
2019-05-26T04:30:28.853Z,13.60
2019-05-26T04:31:28.867Z,12.40
2019-05-26T04:32:28.879Z,12.50
2019-05-26T04:33:28.844Z,12.50
2019-05-26T04:34:28.860Z,13.10
2019-05-26T04:35:28.847Z,12.60
2019-05-26T04:36:28.843Z,11.50
2019-05-26T04:37:28.875Z,11.70
2019-05-26T04:38:28.840Z,11.10
2019-05-26T04:39:28.843Z,11.80
2019-05-26T04:40:28.857Z,10.60
2019-05-26T04:41:28.846Z,10.60
2019-05-26T04:42:28.868Z,10.40
2019-05-26T04:43:29.794Z,10.30
2019-05-26T04:44:28.839Z,10.30
2019-05-26T04:45:28.839Z,10.60
2019-05-26T04:46:28.839Z,11.20
2019-05-26T04:47:28.861Z,10.60
2019-05-26T04:48:28.843Z,10.60
2019-05-26T04:49:28.847Z,9.90
2019-05-26T04:50:28.837Z,11.00
2019-05-26T04:51:28.835Z,10.60
2019-05-26T04:52:28.865Z,11.90
2019-05-26T04:53:28.840Z,11.50
2019-05-26T04:54:28.840Z,11.40
2019-05-26T04:55:28.846Z,10.50
2019-05-26T04:56:28.839Z,10.60
2019-05-26T04:57:28.865Z,10.50
2019-05-26T04:58:28.836Z,9.50
2019-05-26T04:59:28.844Z,9.70
2019-05-26T05:00:28.833Z,9.90
2019-05-26T05:01:29.813Z,9.60
2019-05-26T05:02:28.864Z,9.90
2019-05-26T05:03:28.837Z,9.80
2019-05-26T05:04:29.798Z,9.70
2019-05-26T05:05:28.843Z,9.00
2019-05-26T05:06:28.841Z,9.10
2019-05-26T05:07:28.982Z,8.80
2019-05-26T05:08:28.842Z,9.70
2019-05-26T05:09:28.846Z,9.60
2019-05-26T05:10:41.759Z,9.10
2019-05-26T05:11:28.846Z,9.70
2019-05-26T05:12:28.885Z,9.50
2019-05-26T05:13:28.859Z,9.30
2019-05-26T05:14:28.860Z,9.20
2019-05-26T05:15:28.853Z,9.30
2019-05-26T05:16:28.848Z,9.80
2019-05-26T05:17:28.879Z,10.00
2019-05-26T05:18:28.866Z,10.10
2019-05-26T05:19:28.852Z,9.60
2019-05-26T05:20:28.859Z,9.50
2019-05-26T05:21:28.852Z,9.30
2019-05-26T05:22:28.891Z,9.20
2019-05-26T05:23:29.805Z,9.40
2019-05-26T05:24:28.869Z,9.60
2019-05-26T05:25:28.896Z,9.60
2019-05-26T05:26:28.865Z,9.80
2019-05-26T05:27:28.931Z,9.60
2019-05-26T05:28:28.878Z,9.10
2019-05-26T05:29:28.875Z,9.60
2019-05-26T05:30:28.869Z,9.40
2019-05-26T05:31:28.892Z,9.20
2019-05-26T05:32:32.671Z,9.40
2019-05-26T05:33:28.908Z,10.00
2019-05-26T05:34:28.884Z,9.60
2019-05-26T05:35:28.890Z,9.20
2019-05-26T05:36:28.905Z,9.60
2019-05-26T05:37:28.885Z,9.20
2019-05-26T05:38:28.917Z,9.80
2019-05-26T05:39:28.891Z,9.60
2019-05-26T05:40:28.898Z,10.00
2019-05-26T05:41:28.897Z,10.00
2019-05-26T05:42:28.911Z,10.90
2019-05-26T05:43:28.938Z,10.70
2019-05-26T05:44:28.903Z,10.50
2019-05-26T05:45:28.926Z,10.90
2019-05-26T05:46:28.903Z,10.80
2019-05-26T05:47:28.906Z,11.40
2019-05-26T05:48:28.946Z,11.50
2019-05-26T05:49:28.908Z,11.80
2019-05-26T05:50:28.913Z,11.00
2019-05-26T05:51:28.912Z,11.20
2019-05-26T05:52:28.915Z,10.70
2019-05-26T05:53:28.962Z,11.00
2019-05-26T05:54:28.913Z,10.60
2019-05-26T05:55:28.923Z,11.80
2019-05-26T05:56:28.927Z,11.00
2019-05-26T05:57:28.947Z,11.00
2019-05-26T05:58:28.953Z,11.30
2019-05-26T05:59:28.944Z,10.70
2019-05-26T06:00:28.926Z,11.30
2019-05-26T06:01:28.930Z,10.20
2019-05-26T06:02:28.931Z,10.80
2019-05-26T06:03:28.969Z,10.60
2019-05-26T06:04:29.359Z,10.70
2019-05-26T06:05:28.944Z,10.40
2019-05-26T06:06:28.936Z,10.60
2019-05-26T06:07:28.943Z,10.80
2019-05-26T06:08:28.972Z,10.70
2019-05-26T06:09:28.942Z,10.70
2019-05-26T06:10:28.943Z,10.80
2019-05-26T06:11:28.948Z,10.70
2019-05-26T06:12:28.953Z,9.90
2019-05-26T06:13:28.976Z,10.00
2019-05-26T06:14:29.033Z,10.00
2019-05-26T06:15:28.953Z,9.90
2019-05-26T06:16:28.957Z,10.60
2019-05-26T06:17:28.967Z,10.20
2019-05-26T06:18:28.993Z,10.10
2019-05-26T06:19:28.973Z,10.40
2019-05-26T06:20:28.966Z,11.00
2019-05-26T06:21:28.968Z,11.00
2019-05-26T06:22:28.971Z,10.30
2019-05-26T06:23:29.016Z,10.50
2019-05-26T06:24:28.980Z,10.70
2019-05-26T06:25:28.989Z,10.50
2019-05-26T06:26:28.991Z,9.80
2019-05-26T06:27:28.983Z,10.10
2019-05-26T06:28:29.013Z,10.00
2019-05-26T06:29:28.993Z,10.10
2019-05-26T06:30:28.996Z,10.60
2019-05-26T06:31:28.998Z,11.10
2019-05-26T06:32:29.003Z,10.60
2019-05-26T06:33:29.030Z,10.10
2019-05-26T06:34:29.008Z,10.10
2019-05-26T06:35:32.460Z,10.00
2019-05-26T06:36:29.009Z,9.50
2019-05-26T06:37:29.013Z,10.10
2019-05-26T06:38:29.044Z,9.90
2019-05-26T06:39:29.026Z,9.80
2019-05-26T06:40:29.027Z,9.50
2019-05-26T06:41:33.475Z,9.70
2019-05-26T06:42:29.039Z,9.80
2019-05-26T06:43:29.069Z,9.60
2019-05-26T06:44:29.041Z,9.80
2019-05-26T06:45:29.049Z,9.60
2019-05-26T06:46:29.049Z,9.60
2019-05-26T06:47:29.057Z,9.60
2019-05-26T06:48:29.061Z,9.50
2019-05-26T06:49:29.121Z,9.70
2019-05-26T06:50:29.073Z,10.30
2019-05-26T06:51:29.083Z,11.10
2019-05-26T06:52:29.827Z,9.70
2019-05-26T06:53:29.075Z,10.30
2019-05-26T06:54:29.123Z,9.60
2019-05-26T06:55:29.084Z,9.10
2019-05-26T06:56:29.122Z,10.00
2019-05-26T06:57:29.129Z,9.30
2019-05-26T06:58:29.106Z,9.80
2019-05-26T06:59:29.132Z,9.30
2019-05-26T07:00:29.113Z,9.20
2019-05-26T07:01:29.121Z,8.50
2019-05-26T07:02:29.121Z,9.10
2019-05-26T07:03:29.127Z,9.30
2019-05-26T07:04:29.172Z,9.70
2019-05-26T07:05:29.904Z,9.10
2019-05-26T07:06:29.140Z,9.20
2019-05-26T07:07:29.152Z,8.80
2019-05-26T07:08:29.158Z,7.60
2019-05-26T07:09:29.185Z,7.40
2019-05-26T07:10:29.163Z,7.50
2019-05-26T07:11:29.173Z,8.10
2019-05-26T07:12:29.213Z,7.30
2019-05-26T07:13:29.180Z,6.90
2019-05-26T07:14:29.225Z,6.60
2019-05-26T07:15:29.190Z,6.00
2019-05-26T07:16:38.090Z,5.30
2019-05-26T07:17:29.202Z,5.50
2019-05-26T07:18:29.209Z,5.60
2019-05-26T07:19:29.244Z,5.80
2019-05-26T07:20:29.217Z,6.20
2019-05-26T07:21:29.271Z,6.60
2019-05-26T07:22:29.231Z,6.60
2019-05-26T07:23:29.248Z,6.60
2019-05-26T07:24:29.685Z,6.50
2019-05-26T07:25:29.251Z,4.80
2019-05-26T07:26:29.255Z,5.90
2019-05-26T07:27:29.259Z,4.40
2019-05-26T07:28:29.267Z,4.80
2019-05-26T07:29:29.304Z,4.40
2019-05-26T07:30:29.284Z,4.80
2019-05-26T07:31:29.298Z,4.60
2019-05-26T07:32:29.296Z,4.60
2019-05-26T07:33:29.300Z,4.50
2019-05-26T07:34:29.338Z,4.30
2019-05-26T07:35:29.313Z,6.40
2019-05-26T07:36:29.326Z,4.60
2019-05-26T07:37:29.332Z,6.00
2019-05-26T07:38:29.336Z,16.60
2019-05-26T07:39:29.370Z,4.50
2019-05-26T07:40:29.342Z,4.50
2019-05-26T07:41:29.357Z,4.00
2019-05-26T07:42:29.363Z,4.60
2019-05-26T07:43:29.364Z,8.30
2019-05-26T07:44:29.399Z,7.50
2019-05-26T07:45:29.378Z,6.30
2019-05-26T07:46:29.387Z,5.80
2019-05-26T07:47:29.386Z,4.20
2019-05-26T07:48:29.404Z,6.20
2019-05-26T07:49:29.430Z,4.00
2019-05-26T07:50:29.412Z,4.10
2019-05-26T07:51:29.425Z,3.30
2019-05-26T07:52:29.431Z,3.60
2019-05-26T07:53:29.431Z,3.30
2019-05-26T07:54:29.460Z,3.20
2019-05-26T07:55:29.447Z,3.30
2019-05-26T07:56:29.455Z,3.00
2019-05-26T07:57:29.459Z,3.20
2019-05-26T07:58:29.466Z,3.00
2019-05-26T07:59:29.496Z,3.20
2019-05-26T08:00:29.480Z,3.00
2019-05-26T08:01:35.686Z,2.70
2019-05-26T08:02:29.515Z,2.30
2019-05-26T08:03:29.503Z,2.70
2019-05-26T08:04:29.541Z,3.20
2019-05-26T08:05:29.517Z,2.40
2019-05-26T08:06:29.585Z,2.30
2019-05-26T08:07:29.530Z,2.30
2019-05-26T08:08:29.537Z,2.20
2019-05-26T08:09:29.574Z,2.40
2019-05-26T08:10:29.596Z,2.70
2019-05-26T08:11:29.564Z,2.40
2019-05-26T08:12:30.714Z,2.50
2019-05-26T08:13:29.577Z,2.90
2019-05-26T08:14:29.590Z,2.90
2019-05-26T08:15:29.626Z,3.10
2019-05-26T08:16:29.602Z,2.90
2019-05-26T08:17:29.617Z,3.00
2019-05-26T08:18:29.620Z,2.60
2019-05-26T08:19:29.639Z,2.50
2019-05-26T08:20:29.666Z,2.00
2019-05-26T08:21:29.647Z,2.20
2019-05-26T08:22:29.653Z,2.50
2019-05-26T08:23:29.658Z,2.30
2019-05-26T08:24:29.671Z,2.20
2019-05-26T08:25:29.705Z,2.60
2019-05-26T08:26:29.684Z,2.30
2019-05-26T08:27:29.691Z,2.60
2019-05-26T08:28:29.713Z,2.50
2019-05-26T08:29:29.720Z,2.40
2019-05-26T08:30:29.751Z,2.50
2019-05-26T08:31:29.736Z,2.60
2019-05-26T08:32:29.743Z,2.50
2019-05-26T08:33:29.750Z,3.00
2019-05-26T08:34:29.766Z,3.00
2019-05-26T08:35:29.793Z,3.00
2019-05-26T08:36:29.777Z,2.80
2019-05-26T08:37:29.791Z,3.00
2019-05-26T08:38:29.799Z,2.70
2019-05-26T08:39:29.810Z,2.90
2019-05-26T08:40:29.899Z,2.80
2019-05-26T08:41:29.827Z,2.80
2019-05-26T08:42:43.844Z,2.80
2019-05-26T08:43:30.360Z,2.50
2019-05-26T08:44:29.863Z,2.50
2019-05-26T08:45:29.902Z,2.90
2019-05-26T08:46:29.879Z,2.70
2019-05-26T08:47:29.887Z,2.90
2019-05-26T08:48:29.899Z,3.00
2019-05-26T08:49:29.909Z,3.10
2019-05-26T08:50:29.950Z,2.60
2019-05-26T08:51:29.925Z,2.70
2019-05-26T08:52:29.977Z,2.40
2019-05-26T08:53:29.949Z,2.40
2019-05-26T08:54:29.961Z,2.50
2019-05-26T08:55:30.005Z,2.50
2019-05-26T08:56:29.978Z,2.70
2019-05-26T08:57:29.989Z,2.50
2019-05-26T08:58:30.005Z,2.50
2019-05-26T08:59:30.018Z,2.70
2019-05-26T09:00:30.057Z,2.50
2019-05-26T09:01:30.033Z,2.40
2019-05-26T09:02:30.050Z,2.70
2019-05-26T09:03:30.178Z,2.60
2019-05-26T09:04:30.065Z,2.60
2019-05-26T09:05:30.108Z,2.30
2019-05-26T09:06:30.097Z,2.70
2019-05-26T09:07:30.098Z,2.60
2019-05-26T09:08:30.116Z,2.30
2019-05-26T09:09:30.132Z,2.20
2019-05-26T09:10:30.173Z,2.40
2019-05-26T09:11:30.862Z,2.20
2019-05-26T09:12:30.155Z,2.40
2019-05-26T09:13:30.175Z,2.70
2019-05-26T09:14:30.188Z,2.60
2019-05-26T09:15:30.226Z,2.50
2019-05-26T09:16:30.228Z,2.60
2019-05-26T09:17:30.219Z,2.40
2019-05-26T09:18:30.232Z,2.40
2019-05-26T09:19:30.244Z,2.40
2019-05-26T09:20:30.288Z,2.50
2019-05-26T09:21:30.268Z,2.40
2019-05-26T09:22:30.281Z,2.40
2019-05-26T09:23:30.295Z,2.30
2019-05-26T09:24:30.309Z,2.30
2019-05-26T09:25:30.350Z,2.30
2019-05-26T09:26:30.361Z,2.20
2019-05-26T09:27:30.339Z,2.40
2019-05-26T09:28:30.360Z,2.10
2019-05-26T09:29:30.376Z,2.30
2019-05-26T09:30:30.385Z,2.10
2019-05-26T09:31:33.493Z,2.10
2019-05-26T09:32:30.413Z,2.10
2019-05-26T09:33:30.430Z,2.10
2019-05-26T09:34:30.435Z,2.10
2019-05-26T09:35:30.458Z,1.90
2019-05-26T09:36:30.500Z,2.10
2019-05-26T09:37:30.477Z,2.20
2019-05-26T09:38:31.375Z,2.10
2019-05-26T09:39:31.375Z,2.10
2019-05-26T09:40:30.519Z,2.20
2019-05-26T09:41:30.562Z,2.10
2019-05-26T09:42:30.554Z,1.90
2019-05-26T09:43:30.568Z,1.90
2019-05-26T09:44:30.576Z,1.80
2019-05-26T09:45:30.616Z,1.90
2019-05-26T09:46:30.634Z,1.90
2019-05-26T09:47:30.622Z,2.00
2019-05-26T09:48:30.648Z,2.00
2019-05-26T09:49:30.653Z,2.00
2019-05-26T09:50:30.666Z,1.90
2019-05-26T09:51:30.788Z,1.70
2019-05-26T09:52:30.697Z,2.10
2019-05-26T09:53:30.709Z,1.70
2019-05-26T09:54:30.720Z,1.90
2019-05-26T09:55:30.735Z,2.00
2019-05-26T09:56:30.776Z,1.80
2019-05-26T09:57:30.760Z,1.90
2019-05-26T09:58:31.384Z,1.70
2019-05-26T09:59:30.790Z,1.60
2019-05-26T10:00:30.808Z,1.70
2019-05-26T10:01:31.104Z,1.90
2019-05-26T10:02:31.391Z,1.60
2019-05-26T10:03:30.849Z,1.90
2019-05-26T10:04:30.856Z,1.90
2019-05-26T10:05:30.873Z,1.90
2019-05-26T10:06:30.925Z,1.80
2019-05-26T10:07:30.903Z,1.80
2019-05-26T10:08:30.912Z,1.80
2019-05-26T10:09:30.921Z,1.80
2019-05-26T10:10:30.944Z,1.80
2019-05-26T10:11:30.981Z,1.80
2019-05-26T10:12:30.966Z,1.90
2019-05-26T10:13:32.137Z,2.00
2019-05-26T10:14:31.036Z,2.10
2019-05-26T10:15:31.886Z,1.90
2019-05-26T10:16:31.046Z,1.90
2019-05-26T10:17:31.047Z,1.80
2019-05-26T10:18:31.046Z,2.00
2019-05-26T10:19:31.056Z,1.70
2019-05-26T10:20:31.078Z,1.80
2019-05-26T10:21:31.114Z,1.70
2019-05-26T10:22:31.101Z,1.60
2019-05-26T10:23:31.170Z,1.70
2019-05-26T10:24:31.157Z,1.60
2019-05-26T10:25:31.152Z,1.50
2019-05-26T10:26:31.236Z,1.50
2019-05-26T10:27:31.190Z,1.50
2019-05-26T10:28:31.243Z,1.40
2019-05-26T10:29:31.246Z,1.40
2019-05-26T10:30:31.245Z,1.30
2019-05-26T10:31:31.264Z,1.10
2019-05-26T10:32:31.266Z,1.20
2019-05-26T10:33:31.300Z,1.50
2019-05-26T10:34:31.277Z,1.40
2019-05-26T10:35:31.391Z,1.50
2019-05-26T10:36:31.320Z,1.40
2019-05-26T10:37:31.310Z,1.20
2019-05-26T10:38:31.331Z,1.30
2019-05-26T10:39:31.340Z,1.20
2019-05-26T10:40:31.348Z,1.50
2019-05-26T10:41:31.401Z,1.10
2019-05-26T10:42:31.388Z,1.10
2019-05-26T10:43:44.408Z,1.30
2019-05-26T10:44:31.400Z,1.50
2019-05-26T10:45:34.291Z,1.40
2019-05-26T10:46:31.463Z,1.50
2019-05-26T10:47:31.446Z,1.20
2019-05-26T10:48:31.473Z,1.40
2019-05-26T10:49:31.480Z,1.30
2019-05-26T10:50:31.492Z,1.50
2019-05-26T10:51:31.536Z,1.50
2019-05-26T10:52:31.545Z,1.30
2019-05-26T10:53:31.532Z,1.20
2019-05-26T10:54:31.544Z,1.40
2019-05-26T10:55:31.678Z,1.10
2019-05-26T10:56:31.582Z,1.30
2019-05-26T10:57:31.622Z,1.40
2019-05-26T10:58:31.599Z,1.20
2019-05-26T10:59:31.626Z,1.20
2019-05-26T11:00:33.084Z,1.40
2019-05-26T11:01:31.647Z,1.40
2019-05-26T11:02:31.697Z,1.40
2019-05-26T11:03:31.715Z,1.70
2019-05-26T11:04:31.699Z,1.60
2019-05-26T11:05:31.704Z,1.60
2019-05-26T11:06:31.723Z,1.50
2019-05-26T11:07:31.753Z,1.50
2019-05-26T11:08:31.745Z,1.50
2019-05-26T11:09:31.760Z,1.40
2019-05-26T11:10:31.770Z,1.50
2019-05-26T11:11:31.786Z,1.40
2019-05-26T11:12:31.826Z,1.30
2019-05-26T11:13:31.818Z,1.10
2019-05-26T11:14:31.827Z,1.10
2019-05-26T11:15:31.922Z,1.30
2019-05-26T11:16:32.429Z,1.30
2019-05-26T11:17:31.933Z,1.20
2019-05-26T11:18:32.459Z,1.10
2019-05-26T11:19:31.910Z,1.40
2019-05-26T11:20:31.922Z,0.90
2019-05-26T11:21:32.058Z,1.20
2019-05-26T11:22:31.979Z,1.20
2019-05-26T11:23:31.989Z,1.20
2019-05-26T11:24:31.981Z,1.30
2019-05-26T11:25:31.999Z,1.30
2019-05-26T11:26:32.010Z,1.30
2019-05-26T11:27:32.057Z,1.30
2019-05-26T11:28:32.043Z,1.00
2019-05-26T11:29:32.054Z,1.10
2019-05-26T11:30:32.071Z,1.00
2019-05-26T11:31:32.090Z,1.30
2019-05-26T11:32:32.137Z,1.40
2019-05-26T11:33:32.130Z,1.40
2019-05-26T11:34:32.142Z,1.30
2019-05-26T11:35:32.919Z,1.10
2019-05-26T11:36:32.971Z,1.10
2019-05-26T11:37:32.448Z,1.10
2019-05-26T11:38:33.827Z,1.20
2019-05-26T11:39:32.223Z,1.10
2019-05-26T11:40:32.261Z,1.30
2019-05-26T11:41:32.247Z,1.10
2019-05-26T11:42:32.297Z,1.20
2019-05-26T11:43:32.922Z,1.30
2019-05-26T11:44:32.301Z,1.30
2019-05-26T11:45:32.329Z,1.10
2019-05-26T11:46:32.326Z,1.30
2019-05-26T11:47:32.375Z,1.10
2019-05-26T11:48:32.354Z,1.30
2019-05-26T11:49:32.367Z,1.40
2019-05-26T11:50:32.413Z,1.10
2019-05-26T11:51:32.401Z,1.10
2019-05-26T11:52:32.442Z,1.30
2019-05-26T11:53:32.429Z,1.30
2019-05-26T11:54:34.557Z,1.30
2019-05-26T11:55:32.454Z,1.20
2019-05-26T11:56:32.500Z,1.40
2019-05-26T11:57:36.099Z,1.10
2019-05-26T11:58:32.502Z,1.30
2019-05-26T11:59:32.512Z,1.20
2019-05-26T12:00:32.520Z,1.30
2019-05-26T12:01:32.537Z,1.30
2019-05-26T12:02:32.589Z,1.30
2019-05-26T12:03:32.564Z,1.10
2019-05-26T12:04:32.570Z,1.20
2019-05-26T12:05:32.585Z,1.20
2019-05-26T12:06:32.604Z,1.30
2019-05-26T12:07:32.638Z,1.20
2019-05-26T12:08:33.439Z,0.90
2019-05-26T12:09:32.644Z,1.00
2019-05-26T12:10:32.659Z,1.00
2019-05-26T12:11:32.676Z,1.00
2019-05-26T12:12:32.710Z,1.20
2019-05-26T12:13:32.727Z,1.10
2019-05-26T12:14:35.277Z,1.10
2019-05-26T12:15:32.728Z,1.10
2019-05-26T12:16:33.433Z,1.20
2019-05-26T12:17:32.755Z,1.00
2019-05-26T12:18:32.798Z,0.90
2019-05-26T12:19:32.782Z,1.20
2019-05-26T12:20:32.795Z,1.20
2019-05-26T12:21:32.805Z,1.20
2019-05-26T12:22:32.852Z,1.20
2019-05-26T12:23:32.862Z,1.10
2019-05-26T12:24:32.858Z,1.00
2019-05-26T12:25:32.864Z,1.10
2019-05-26T12:26:32.874Z,1.20
2019-05-26T12:27:32.886Z,1.40
2019-05-26T12:28:32.931Z,0.90
2019-05-26T12:29:32.922Z,1.10
2019-05-26T12:30:32.935Z,1.20
2019-05-26T12:31:32.943Z,1.40
2019-05-26T12:32:33.958Z,1.20
2019-05-26T12:33:33.000Z,1.00
2019-05-26T12:34:32.990Z,1.20
2019-05-26T12:35:33.004Z,1.10
2019-05-26T12:36:33.009Z,1.20
2019-05-26T12:37:33.025Z,1.30
2019-05-26T12:38:33.075Z,1.30
2019-05-26T12:39:33.084Z,1.30
2019-05-26T12:40:33.075Z,1.10
2019-05-26T12:41:37.036Z,1.30
2019-05-26T12:42:33.088Z,1.10
2019-05-26T12:43:33.129Z,1.10
2019-05-26T12:44:46.591Z,1.00
2019-05-26T12:45:33.131Z,1.30
2019-05-26T12:46:33.135Z,1.10
2019-05-26T12:47:33.146Z,1.10
2019-05-26T12:48:33.202Z,1.10
2019-05-26T12:49:33.170Z,1.00
2019-05-26T12:50:33.184Z,1.10
2019-05-26T12:51:33.191Z,1.10
2019-05-26T12:52:33.203Z,1.20
2019-05-26T12:53:33.249Z,1.20
2019-05-26T12:54:33.953Z,1.10
2019-05-26T12:55:33.310Z,1.10
2019-05-26T12:56:33.260Z,1.20
2019-05-26T12:57:33.277Z,1.10
2019-05-26T12:58:33.305Z,1.30
2019-05-26T12:59:33.290Z,1.10
2019-05-26T13:00:47.340Z,1.00
2019-05-26T13:01:33.316Z,1.10
2019-05-26T13:02:33.335Z,0.90
2019-05-26T13:03:33.389Z,1.10
2019-05-26T13:04:33.351Z,0.90
2019-05-26T13:05:33.367Z,1.00
2019-05-26T13:06:33.381Z,1.10
2019-05-26T13:07:33.391Z,1.00
2019-05-26T13:08:33.437Z,1.10